Time;durP1;ratioP1;P1;durP2;ratioP2;P2;SDS_P1;SDS_P2;PMS_P1;PMS_P2;Temp;Humidity;BMP_temperature;BMP_pressure;BME280_temperature;BME280_humidity;BME280_pressure;Samples;Min_cycle;Max_cycle;Signal;HPM_P1;HPM_P2
2020/12/16 00:01:33;;;;;;;23.40;21.70;;;8.60;97.40;;;;;;5012510;28;20209;-78
2020/12/16 00:04:00;;;;;;;24.60;22.52;;;8.70;97.00;;;;;;5012404;28;20232;-78
2020/12/16 00:06:26;;;;;;;37.85;23.73;;;8.60;96.90;;;;;;5011983;28;20642;-77
2020/12/16 00:08:53;;;;;;;22.85;21.15;;;8.60;97.20;;;;;;5012521;28;20575;-78
2020/12/16 00:11:19;;;;;;;22.58;20.88;;;8.60;97.80;;;;;;5012462;28;20283;-78
2020/12/16 00:13:46;;;;;;;22.00;20.58;;;8.60;97.90;;;;;;5012106;28;20190;-78
2020/12/16 00:16:13;;;;;;;22.00;20.50;;;8.60;97.60;;;;;;5011681;28;20718;-78
2020/12/16 00:18:39;;;;;;;21.92;20.38;;;8.50;97.50;;;;;;5014983;28;20228;-78
2020/12/16 00:21:06;;;;;;;21.90;20.17;;;8.50;97.70;;;;;;5015955;28;20198;-78
2020/12/16 00:23:32;;;;;;;23.48;21.63;;;8.40;97.90;;;;;;5015271;28;20749;-78
2020/12/16 00:25:58;;;;;;;22.67;20.92;;;8.50;97.80;;;;;;5015437;28;20194;-78
2020/12/16 00:28:24;;;;;;;21.23;19.73;;;8.50;97.70;;;;;;5015546;28;20251;-77
2020/12/16 00:30:51;;;;;;;22.73;20.98;;;8.50;97.50;;;;;;5016137;28;20246;-78
2020/12/16 00:33:18;;;;;;;23.23;21.42;;;8.40;97.40;;;;;;5017528;28;20248;-77
2020/12/16 00:35:46;;;;;;;21.98;20.20;;;8.40;97.70;;;;;;5017129;28;20195;-78
2020/12/16 00:38:12;;;;;;;23.55;21.67;;;8.40;97.70;;;;;;5015658;28;20228;-78
2020/12/16 00:40:39;;;;;;;21.85;20.30;;;8.40;97.60;;;;;;5015480;28;20201;-78
2020/12/16 00:43:06;;;;;;;22.90;21.27;;;8.40;97.30;;;;;;5015600;28;20199;-78
2020/12/16 00:45:32;;;;;;;23.13;21.42;;;8.40;97.20;;;;;;5015213;28;20277;-78
2020/12/16 00:47:59;;;;;;;24.38;22.38;;;8.40;96.90;;;;;;5015338;28;20214;-78
2020/12/16 00:50:26;;;;;;;23.88;22.13;;;8.30;96.90;;;;;;5015384;28;20204;-78
2020/12/16 00:52:53;;;;;;;24.60;22.80;;;8.40;96.70;;;;;;5015449;28;20198;-78
2020/12/16 00:55:19;;;;;;;22.77;20.98;;;8.40;96.30;;;;;;5015056;28;20194;-78
2020/12/16 00:57:46;;;;;;;24.42;22.58;;;8.30;96.40;;;;;;5014895;28;20225;-77
2020/12/16 01:00:14;;;;;;;22.80;20.90;;;8.10;97.10;;;;;;5015213;28;20610;-78
2020/12/16 01:02:41;;;;;;;22.80;21.27;;;8.10;97.30;;;;;;5015243;28;20293;-78
2020/12/16 01:05:07;;;;;;;22.73;21.20;;;8.10;97.30;;;;;;5014804;28;20198;-78
2020/12/16 01:07:35;;;;;;;28.58;23.05;;;8.10;97.50;;;;;;5014680;28;20210;-77
2020/12/16 01:10:01;;;;;;;21.65;20.13;;;8.10;97.50;;;;;;5015085;28;20194;-78
2020/12/16 01:12:27;;;;;;;23.23;21.42;;;8.20;97.50;;;;;;5014940;28;20198;-78
2020/12/16 01:14:54;;;;;;;21.85;20.08;;;8.30;97.40;;;;;;5015045;28;20288;-78
2020/12/16 01:17:20;;;;;;;22.60;20.85;;;8.30;97.80;;;;;;5014294;28;20224;-78
2020/12/16 01:19:46;;;;;;;22.55;21.05;;;8.20;97.90;;;;;;5014507;28;20529;-78
2020/12/16 01:22:13;;;;;;;23.73;22.02;;;8.30;98.10;;;;;;5014957;28;20201;-77
2020/12/16 01:24:40;;;;;;;22.60;21.10;;;8.30;97.90;;;;;;5015081;28;20198;-78
2020/12/16 01:27:06;;;;;;;22.77;20.85;;;8.30;97.50;;;;;;5013988;28;20217;-78
2020/12/16 01:29:32;;;;;;;23.52;21.50;;;8.40;98.10;;;;;;5014547;28;20190;-78
2020/12/16 01:31:59;;;;;;;65.00;25.20;;;8.40;99.10;;;;;;5014407;28;20198;-78
2020/12/16 01:34:25;;;;;;;22.73;20.92;;;8.50;98.80;;;;;;5014448;28;20224;-78
2020/12/16 01:36:51;;;;;;;21.83;20.33;;;8.50;99.70;;;;;;5013966;28;20695;-78
2020/12/16 01:39:18;;;;;;;23.30;21.25;;;8.40;99.30;;;;;;5014178;28;20222;-78
2020/12/16 01:41:47;;;;;;;22.40;20.52;;;8.50;99.30;;;;;;5014315;28;20195;-78
2020/12/16 01:44:15;;;;;;;22.08;20.60;;;8.60;98.70;;;;;;5014168;28;20255;-77
2020/12/16 01:46:49;;;;;;;91.88;27.50;;;8.50;98.30;;;;;;5014157;28;20218;-77
2020/12/16 01:49:16;;;;;;;244.60;39.10;;;8.60;98.40;;;;;;5014261;28;20216;-78
2020/12/16 01:51:43;;;;;;;232.25;41.88;;;8.60;99.10;;;;;;5014206;28;20198;-78
2020/12/16 01:54:11;;;;;;;21.77;20.13;;;8.60;99.80;;;;;;5014212;28;20569;-78
2020/12/16 01:56:41;;;;;;;23.38;21.67;;;8.70;99.50;;;;;;5015755;28;20775;-77
2020/12/16 01:59:10;;;;;;;22.35;20.65;;;8.60;99.20;;;;;;5016009;28;20330;-78
2020/12/16 02:01:38;;;;;;;23.88;21.85;;;8.60;98.90;;;;;;5014552;28;20204;-78
2020/12/16 02:04:09;;;;;;;23.25;21.55;;;8.70;98.40;;;;;;5013932;28;20198;-78
2020/12/16 02:06:36;;;;;;;24.10;21.60;;;8.70;98.20;;;;;;5013491;28;20244;-78
2020/12/16 02:09:06;;;;;;;145.07;30.98;;;8.80;97.90;;;;;;5013915;28;20453;-78
2020/12/16 02:11:34;;;;;;;22.02;20.42;;;8.80;97.60;;;;;;5013929;28;20224;-78
2020/12/16 02:14:01;;;;;;;24.98;22.70;;;8.70;97.80;;;;;;5013813;28;20505;-78
2020/12/16 02:16:29;;;;;;;21.58;20.20;;;8.80;97.50;;;;;;5013326;28;20214;-78
2020/12/16 02:18:55;;;;;;;22.33;20.70;;;8.90;97.40;;;;;;5013713;28;20284;-78
2020/12/16 02:21:22;;;;;;;23.80;21.88;;;8.80;97.00;;;;;;5013758;28;20201;-78
2020/12/16 02:23:51;;;;;;;63.20;25.33;;;8.80;97.10;;;;;;5013827;28;20224;-78
2020/12/16 02:26:18;;;;;;;22.52;20.80;;;8.80;97.20;;;;;;5012852;28;20210;-78
2020/12/16 02:28:44;;;;;;;23.20;21.40;;;8.80;97.10;;;;;;5015486;28;20194;-78
2020/12/16 02:31:11;;;;;;;23.02;21.42;;;8.90;97.00;;;;;;5016856;28;20198;-78
2020/12/16 02:33:38;;;;;;;23.60;21.90;;;8.90;96.70;;;;;;5013612;28;20201;-78
2020/12/16 02:36:04;;;;;;;22.52;20.92;;;8.90;96.50;;;;;;5012989;28;20226;-78
2020/12/16 02:38:31;;;;;;;23.40;21.70;;;8.90;96.30;;;;;;5013317;28;20221;-78
2020/12/16 02:40:57;;;;;;;25.52;23.63;;;8.80;96.80;;;;;;5012887;28;20205;-78
2020/12/16 02:43:25;;;;;;;35.78;23.88;;;8.80;97.00;;;;;;5013387;28;20206;-78
2020/12/16 02:45:51;;;;;;;279.25;42.53;;;8.80;97.10;;;;;;5012896;28;20197;-77
2020/12/16 02:48:17;;;;;;;225.85;41.17;;;8.90;97.30;;;;;;5013110;28;20564;-78
2020/12/16 02:50:44;;;;;;;23.88;22.00;;;8.90;97.60;;;;;;5012987;28;20656;-78
2020/12/16 02:53:10;;;;;;;24.58;22.65;;;8.90;98.20;;;;;;5012955;28;20198;-78
2020/12/16 02:55:36;;;;;;;25.98;23.70;;;9.00;98.00;;;;;;5013038;28;20201;-78
2020/12/16 02:58:03;;;;;;;24.95;22.95;;;8.90;98.00;;;;;;5012801;28;20284;-78
2020/12/16 03:00:30;;;;;;;24.50;22.60;;;8.90;97.90;;;;;;5013211;28;20198;-78
2020/12/16 03:02:56;;;;;;;35.10;24.60;;;8.90;97.60;;;;;;5013075;28;20448;-78
2020/12/16 03:05:22;;;;;;;25.67;23.80;;;8.90;97.70;;;;;;5013060;28;20679;-78
2020/12/16 03:07:49;;;;;;;25.42;22.85;;;8.90;98.30;;;;;;5013188;28;20490;-78
2020/12/16 03:10:15;;;;;;;24.75;22.88;;;8.90;98.10;;;;;;5012628;28;20206;-78
2020/12/16 03:12:41;;;;;;;26.48;24.42;;;8.90;98.10;;;;;;5013093;28;20255;-78
2020/12/16 03:15:08;;;;;;;24.98;23.00;;;9.00;98.50;;;;;;5012981;28;20198;-78
2020/12/16 03:17:35;;;;;;;24.97;23.23;;;9.00;97.90;;;;;;5012698;28;20222;-78
2020/12/16 03:20:01;;;;;;;26.27;24.40;;;9.00;97.50;;;;;;5012694;28;20449;-78
2020/12/16 03:22:29;;;;;;;24.60;22.70;;;9.00;97.50;;;;;;5012664;28;20453;-78
2020/12/16 03:24:55;;;;;;;25.00;23.08;;;9.00;97.50;;;;;;5012864;28;20206;-78
2020/12/16 03:27:21;;;;;;;755.28;87.85;;;9.00;97.80;;;;;;5012487;28;20268;-78
2020/12/16 03:29:48;;;;;;;269.57;48.70;;;9.00;97.90;;;;;;5012518;28;20259;-78
2020/12/16 03:32:14;;;;;;;25.57;23.67;;;9.10;98.00;;;;;;5012657;28;20480;-78
2020/12/16 03:34:41;;;;;;;25.23;23.47;;;9.20;97.80;;;;;;5012841;28;20935;-78
2020/12/16 03:37:08;;;;;;;25.08;23.38;;;9.20;97.00;;;;;;5012436;28;20843;-78
2020/12/16 03:39:34;;;;;;;24.98;23.23;;;9.10;97.20;;;;;;5012505;28;20218;-78
2020/12/16 03:42:01;;;;;;;26.00;24.00;;;9.10;97.20;;;;;;5012682;28;20668;-78
2020/12/16 03:44:27;;;;;;;25.08;23.15;;;9.10;96.70;;;;;;5013033;28;20839;-78
2020/12/16 03:46:54;;;;;;;25.53;23.70;;;9.10;96.90;;;;;;5012515;28;20222;-78
2020/12/16 03:49:20;;;;;;;25.10;23.30;;;9.10;96.50;;;;;;5012369;28;20449;-78
2020/12/16 03:51:52;;;;;;;39.63;24.53;;;9.10;97.30;;;;;;5012583;28;20460;-78
2020/12/16 03:54:18;;;;;;;26.08;24.17;;;9.10;97.80;;;;;;5016502;28;20448;-78
2020/12/16 03:56:44;;;;;;;25.45;23.55;;;9.10;97.30;;;;;;5016342;28;20275;-78
2020/12/16 03:59:11;;;;;;;25.43;23.63;;;9.20;96.40;;;;;;5015958;28;20684;-78
2020/12/16 04:01:37;;;;;;;24.42;22.70;;;9.10;96.50;;;;;;5016067;28;20526;-78
2020/12/16 04:04:04;;;;;;;24.63;22.83;;;9.10;96.30;;;;;;5016106;28;20201;-78
2020/12/16 04:06:30;;;;;;;25.67;23.77;;;9.00;96.10;;;;;;5016208;28;20489;-78
2020/12/16 04:08:58;;;;;;;25.47;23.67;;;9.00;96.50;;;;;;5016277;28;20535;-78
2020/12/16 04:11:24;;;;;;;25.85;23.92;;;9.00;96.50;;;;;;5015979;28;20456;-78
2020/12/16 04:13:50;;;;;;;112.93;31.08;;;9.00;96.20;;;;;;5015892;28;20220;-78
2020/12/16 04:16:19;;;;;;;27.08;25.20;;;9.10;96.00;;;;;;5016131;28;20224;-78
2020/12/16 04:18:45;;;;;;;26.20;24.40;;;9.00;96.10;;;;;;5016055;28;20229;-78
2020/12/16 04:21:12;;;;;;;26.47;24.67;;;8.90;96.10;;;;;;5016374;28;20510;-78
2020/12/16 04:23:39;;;;;;;25.00;23.23;;;8.90;96.40;;;;;;5015681;28;21012;-78
2020/12/16 04:26:06;;;;;;;24.90;23.30;;;8.80;96.40;;;;;;5018077;28;20529;-78
2020/12/16 04:28:34;;;;;;;26.52;24.63;;;8.80;96.50;;;;;;5020067;28;20285;-78
2020/12/16 04:31:00;;;;;;;24.38;22.70;;;8.80;96.10;;;;;;5016410;28;20214;-78
2020/12/16 04:33:27;;;;;;;26.60;24.30;;;8.90;95.80;;;;;;5015568;28;20201;-78
2020/12/16 04:35:53;;;;;;;27.17;25.17;;;8.80;95.70;;;;;;5015519;28;20312;-78
2020/12/16 04:38:20;;;;;;;27.42;25.45;;;8.70;96.40;;;;;;5015592;28;20775;-78
2020/12/16 04:40:46;;;;;;;26.05;24.23;;;8.70;96.50;;;;;;5016113;28;20603;-78
2020/12/16 04:43:17;;;;;;;26.13;24.33;;;8.60;96.60;;;;;;5015771;28;20202;-78
2020/12/16 04:45:44;;;;;;;25.83;24.13;;;8.60;96.40;;;;;;5014817;28;20208;-78
2020/12/16 04:48:11;;;;;;;24.83;22.90;;;8.50;96.20;;;;;;5015616;28;20194;-78
2020/12/16 04:50:39;;;;;;;1268.88;165.15;;;8.50;96.20;;;;;;5015643;28;20200;-78
2020/12/16 04:53:07;;;;;;;1037.55;134.32;;;8.50;98.20;;;;;;5015291;28;20614;-78
2020/12/16 04:55:34;;;;;;;25.95;24.10;;;8.50;98.90;;;;;;5015274;28;20256;-78
2020/12/16 04:58:02;;;;;;;27.58;25.48;;;8.40;97.80;;;;;;5015384;28;20327;-78
2020/12/16 05:00:31;;;;;;;25.25;23.35;;;8.40;97.60;;;;;;5015385;28;20194;-78
2020/12/16 05:02:59;;;;;;;25.65;23.88;;;8.20;97.90;;;;;;5015394;28;20209;-78
2020/12/16 05:05:26;;;;;;;26.52;24.52;;;8.20;98.20;;;;;;5016634;28;20194;-78
2020/12/16 05:07:53;;;;;;;25.27;23.58;;;8.30;97.80;;;;;;5019813;28;20214;-78
2020/12/16 05:10:31;;;;;;;35.35;24.98;;;8.20;97.50;;;;;;5018646;28;20208;-78
2020/12/16 05:13:09;;;;;;;25.40;23.63;;;8.30;98.30;;;;;;5015542;28;20293;-78
2020/12/16 05:15:37;;;;;;;24.00;22.20;;;8.30;97.60;;;;;;5015187;28;20200;-78
2020/12/16 05:18:12;;;;;;;26.40;24.38;;;8.30;97.70;;;;;;5015240;28;20222;-78
2020/12/16 05:20:40;;;;;;;25.15;23.33;;;8.30;97.10;;;;;;5015326;28;20202;-78
2020/12/16 05:23:07;;;;;;;25.63;23.73;;;8.20;97.10;;;;;;5014933;28;20289;-78
2020/12/16 05:25:34;;;;;;;27.02;25.13;;;8.10;97.10;;;;;;5015147;28;20597;-78
2020/12/16 05:28:01;;;;;;;25.38;23.58;;;8.10;97.10;;;;;;5014727;28;20217;-78
2020/12/16 05:30:28;;;;;;;26.35;24.20;;;8.10;97.10;;;;;;5014911;28;20212;-79
2020/12/16 05:32:55;;;;;;;25.30;23.60;;;8.10;97.10;;;;;;5014591;28;20255;-78
2020/12/16 05:35:26;;;;;;;26.13;24.23;;;8.10;97.30;;;;;;5014718;28;20201;-78
2020/12/16 05:37:59;;;;;;;23.92;22.23;;;8.20;97.00;;;;;;5014231;28;20229;-78
2020/12/16 05:40:25;;;;;;;22.42;20.85;;;8.20;96.70;;;;;;5014804;28;20206;-78
2020/12/16 05:42:52;;;;;;;24.20;22.52;;;8.10;96.60;;;;;;5014925;28;20350;-78
2020/12/16 05:45:21;;;;;;;25.20;23.40;;;8.10;96.40;;;;;;5014639;28;20794;-78
2020/12/16 05:48:03;;;;;;;26.00;24.10;;;8.20;95.70;;;;;;5014517;28;20627;-78
2020/12/16 05:50:36;;;;;;;53.80;26.90;;;8.40;94.40;;;;;;4995158;28;20341;-78
2020/12/16 05:53:15;;;;;;;25.13;23.23;;;8.30;94.90;;;;;;4995194;28;20198;-78
2020/12/16 05:55:42;;;;;;;24.65;22.95;;;8.30;94.60;;;;;;4994968;28;20202;-78
2020/12/16 05:58:10;;;;;;;25.83;24.00;;;8.20;94.90;;;;;;4997587;28;20222;-78
2020/12/16 06:00:48;;;;;;;24.40;22.60;;;8.10;95.00;;;;;;5014450;28;20198;-78
2020/12/16 06:03:21;;;;;;;23.58;21.98;;;8.20;95.00;;;;;;5014026;28;20288;-78
2020/12/16 06:05:53;;;;;;;173.60;36.38;;;8.20;94.90;;;;;;5013740;28;20268;-78
2020/12/16 06:08:21;;;;;;;48.55;26.05;;;8.10;94.90;;;;;;5014376;28;20194;-78
2020/12/16 06:10:50;;;;;;;26.08;24.17;;;8.10;96.20;;;;;;5014851;28;20204;-78
2020/12/16 06:13:18;;;;;;;35.75;25.75;;;8.10;96.10;;;;;;5013727;28;20202;-78
2020/12/16 06:15:56;;;;;;;24.60;22.80;;;8.00;96.60;;;;;;5012790;28;20198;-78
2020/12/16 06:18:26;;;;;;;24.20;22.20;;;8.00;97.20;;;;;;5013952;28;20279;-78
2020/12/16 06:20:53;;;;;;;25.67;23.73;;;8.00;97.00;;;;;;5013935;28;20198;-78
2020/12/16 06:23:29;;;;;;;26.58;24.42;;;8.20;95.30;;;;;;5014818;28;20251;-79
2020/12/16 06:25:56;;;;;;;26.10;24.02;;;8.30;94.40;;;;;;4997715;28;20237;-78
2020/12/16 06:28:24;;;;;;;247.27;42.42;;;8.20;94.30;;;;;;4995994;28;20964;-78
2020/12/16 06:30:53;;;;;;;324.20;48.42;;;8.10;95.10;;;;;;5013739;28;20267;-78
2020/12/16 06:33:29;;;;;;;157.65;34.15;;;8.00;96.20;;;;;;5013630;28;20210;-78
2020/12/16 06:36:01;;;;;;;25.20;23.20;;;8.00;98.80;;;;;;4993810;28;20644;-78
2020/12/16 06:38:28;;;;;;;25.27;23.48;;;8.00;98.00;;;;;;4993713;28;20226;-78
2020/12/16 06:40:58;;;;;;;22.83;21.23;;;8.00;97.00;;;;;;4993744;28;20198;-78
2020/12/16 06:43:37;;;;;;;23.20;21.38;;;8.00;96.90;;;;;;4993872;28;20250;-79
2020/12/16 06:46:25;;;;;;;27.10;24.90;;;8.00;96.00;;;;;;5013507;28;20257;-78
2020/12/16 06:48:52;;;;;;;26.85;24.92;;;8.00;95.30;;;;;;5013324;28;20599;-78
2020/12/16 06:51:20;;;;;;;26.05;24.23;;;8.00;94.90;;;;;;5012873;28;20194;-78
2020/12/16 06:53:47;;;;;;;25.15;23.25;;;8.10;93.70;;;;;;5013296;28;20202;-78
2020/12/16 06:56:18;;;;;;;24.25;22.45;;;8.00;93.90;;;;;;5013045;28;20224;-78
2020/12/16 06:58:44;;;;;;;23.65;22.02;;;8.00;97.30;;;;;;5013160;28;20214;-78
2020/12/16 07:01:12;;;;;;;23.63;21.92;;;7.90;96.50;;;;;;5013244;28;20671;-78
2020/12/16 07:03:38;;;;;;;23.33;21.63;;;7.90;96.20;;;;;;5012840;28;20682;-78
2020/12/16 07:06:10;;;;;;;25.00;23.20;;;8.00;95.60;;;;;;5012731;28;20629;-78
2020/12/16 07:08:37;;;;;;;1068.70;132.95;;;8.10;94.90;;;;;;5012733;28;20198;-78
2020/12/16 07:11:03;;;;;;;810.28;108.75;;;8.10;95.00;;;;;;4993374;28;20205;-79
2020/12/16 07:13:31;;;;;;;24.52;22.63;;;8.00;96.70;;;;;;5008575;28;20199;-78
2020/12/16 07:16:03;;;;;;;25.30;23.25;;;8.00;98.20;;;;;;5012509;28;20702;-78
2020/12/16 07:18:32;;;;;;;23.90;22.10;;;8.00;98.70;;;;;;5013084;28;20218;-78
2020/12/16 07:21:19;;;;;;;26.02;23.63;;;8.00;97.00;;;;;;5012901;28;20564;-78
2020/12/16 07:23:51;;;;;;;24.08;22.48;;;8.10;96.80;;;;;;5012816;28;20208;-78
2020/12/16 07:26:19;;;;;;;23.55;21.95;;;8.20;96.00;;;;;;5013417;28;20225;-78
2020/12/16 07:28:46;;;;;;;23.00;21.40;;;8.20;95.20;;;;;;5016492;28;20548;-78
2020/12/16 07:31:13;;;;;;;24.75;22.38;;;8.20;96.10;;;;;;5016651;28;20273;-78
2020/12/16 07:33:39;;;;;;;22.73;21.10;;;8.20;96.20;;;;;;5016745;28;20202;-78
2020/12/16 07:36:06;;;;;;;24.10;22.20;;;8.20;95.40;;;;;;5016585;28;20271;-78
2020/12/16 07:38:33;;;;;;;25.20;23.10;;;8.10;95.20;;;;;;5016197;28;20718;-77
2020/12/16 07:40:59;;;;;;;22.95;21.25;;;8.30;94.10;;;;;;5016638;28;20225;-78
2020/12/16 07:43:26;;;;;;;23.13;21.63;;;8.30;94.00;;;;;;5016831;28;20201;-78
2020/12/16 07:46:03;;;;;;;25.17;23.17;;;8.30;94.10;;;;;;5016414;28;20210;-77
2020/12/16 07:48:30;;;;;;;24.15;22.15;;;8.20;94.00;;;;;;5016363;28;20200;-78
2020/12/16 07:51:05;;;;;;;24.33;22.48;;;8.10;93.90;;;;;;5016529;28;20197;-78
2020/12/16 07:53:33;;;;;;;24.00;22.30;;;8.20;93.90;;;;;;5016441;28;20197;-77
2020/12/16 07:56:01;;;;;;;23.83;21.75;;;8.20;94.30;;;;;;5015963;28;20194;-76
2020/12/16 07:58:30;;;;;;;25.77;23.58;;;8.20;93.20;;;;;;5016399;28;20214;-77
2020/12/16 08:01:09;;;;;;;23.30;21.67;;;8.20;93.40;;;;;;5016291;28;20267;-77
2020/12/16 08:03:36;;;;;;;22.25;20.85;;;8.40;92.10;;;;;;5016231;28;20206;-77
2020/12/16 08:06:03;;;;;;;21.92;20.45;;;8.30;91.80;;;;;;5015663;28;20224;-77
2020/12/16 08:08:30;;;;;;;20.70;19.40;;;8.30;92.00;;;;;;5016224;28;20198;-76
2020/12/16 08:10:57;;;;;;;22.50;21.10;;;8.30;91.80;;;;;;5016171;28;20679;-77
2020/12/16 08:13:26;;;;;;;22.48;20.98;;;8.30;91.50;;;;;;5016112;28;20197;-77
2020/12/16 08:16:03;;;;;;;22.80;21.30;;;8.30;91.40;;;;;;5015891;28;20562;-77
2020/12/16 08:18:30;;;;;;;21.10;19.52;;;8.30;91.20;;;;;;5015662;28;20224;-77
2020/12/16 08:20:56;;;;;;;22.67;20.92;;;8.40;90.90;;;;;;5015745;28;20545;-77
2020/12/16 08:23:22;;;;;;;20.52;19.23;;;8.40;90.50;;;;;;5015751;28;20668;-77
2020/12/16 08:25:49;;;;;;;21.17;19.67;;;8.40;90.40;;;;;;5015591;28;20609;-77
2020/12/16 08:28:25;;;;;;;20.95;19.25;;;8.50;90.70;;;;;;5015567;28;20202;-77
2020/12/16 08:30:52;;;;;;;20.85;19.45;;;8.50;93.90;;;;;;5015883;28;20252;-77
2020/12/16 08:33:19;;;;;;;21.60;20.15;;;8.50;91.60;;;;;;5015345;28;20202;-77
2020/12/16 08:35:50;;;;;;;21.92;20.42;;;8.60;90.90;;;;;;5015401;28;20198;-77
2020/12/16 08:38:24;;;;;;;23.10;21.50;;;8.60;90.70;;;;;;5014493;28;20668;-77
2020/12/16 08:40:52;;;;;;;23.10;21.48;;;8.70;89.60;;;;;;5015565;28;20194;-77
2020/12/16 08:43:22;;;;;;;22.52;21.02;;;8.80;89.70;;;;;;5015365;28;20545;-76
2020/12/16 08:45:57;;;;;;;22.05;20.45;;;8.90;89.90;;;;;;5015390;28;20193;-77
2020/12/16 08:48:23;;;;;;;22.55;20.95;;;8.90;89.40;;;;;;5015162;28;20656;-77
2020/12/16 08:51:00;;;;;;;22.90;21.10;;;9.00;89.10;;;;;;5015283;28;20260;-77
2020/12/16 08:53:27;;;;;;;24.10;22.23;;;9.20;88.60;;;;;;5015548;28;20202;-77
2020/12/16 08:55:53;;;;;;;24.25;22.75;;;9.40;87.20;;;;;;5015183;28;20201;-76
2020/12/16 08:58:20;;;;;;;23.53;21.93;;;9.50;86.70;;;;;;5014993;28;20252;-77
2020/12/16 09:00:47;;;;;;;23.65;21.95;;;9.50;86.80;;;;;;5015260;28;20460;-77
2020/12/16 09:03:13;;;;;;;23.90;22.33;;;9.50;86.70;;;;;;5014494;28;20575;-77
2020/12/16 09:05:42;;;;;;;21.73;20.23;;;9.60;86.60;;;;;;5014685;28;20559;-77
2020/12/16 09:08:11;;;;;;;21.30;20.00;;;9.70;86.90;;;;;;5014743;28;20469;-77
2020/12/16 09:10:38;;;;;;;23.57;22.07;;;9.70;86.70;;;;;;5015090;28;20969;-77
2020/12/16 09:13:12;;;;;;;23.00;21.50;;;9.70;86.10;;;;;;5014964;28;20444;-77
2020/12/16 09:15:43;;;;;;;23.20;21.75;;;9.90;85.10;;;;;;5014396;28;20455;-77
2020/12/16 09:18:09;;;;;;;23.60;22.07;;;9.80;84.60;;;;;;5014680;28;20218;-77
2020/12/16 09:20:36;;;;;;;22.87;21.33;;;9.60;85.50;;;;;;5014730;28;20460;-77
2020/12/16 09:23:03;;;;;;;21.97;20.47;;;9.40;86.40;;;;;;5014517;28;20449;-77
2020/12/16 09:25:29;;;;;;;22.60;21.20;;;9.30;86.90;;;;;;5014398;28;20515;-77
2020/12/16 09:27:57;;;;;;;23.00;21.27;;;9.30;87.20;;;;;;5014258;28;20476;-77
2020/12/16 09:30:35;;;;;;;23.67;22.00;;;9.30;87.30;;;;;;5014706;28;20535;-77
2020/12/16 09:33:11;;;;;;;23.05;21.52;;;9.30;87.30;;;;;;5014049;28;20465;-77
2020/12/16 09:35:39;;;;;;;22.50;21.00;;;9.40;87.30;;;;;;5014332;28;20600;-77
2020/12/16 09:38:16;;;;;;;21.53;20.10;;;9.50;87.10;;;;;;5014227;28;20488;-77
2020/12/16 09:40:43;;;;;;;23.77;21.57;;;9.60;86.70;;;;;;5014461;28;20491;-77
2020/12/16 09:43:10;;;;;;;23.60;21.97;;;9.60;86.60;;;;;;5014420;28;20454;-77
2020/12/16 09:45:38;;;;;;;22.03;20.70;;;9.70;86.30;;;;;;5014243;28;20467;-77
2020/12/16 09:48:06;;;;;;;21.87;20.57;;;9.80;85.90;;;;;;5013943;28;20934;-77
2020/12/16 09:50:36;;;;;;;22.33;20.67;;;9.80;85.80;;;;;;5013064;28;20986;-77
2020/12/16 09:53:04;;;;;;;21.80;20.50;;;9.90;85.90;;;;;;5014218;28;20459;-77
2020/12/16 09:55:36;;;;;;;23.17;21.37;;;9.90;85.90;;;;;;5013856;28;20460;-77
2020/12/16 09:58:04;;;;;;;21.93;20.53;;;10.00;85.50;;;;;;5014122;28;20480;-77
2020/12/16 10:00:32;;;;;;;23.13;21.47;;;10.00;86.80;;;;;;5014011;28;20489;-77
2020/12/16 10:03:00;;;;;;;22.17;20.60;;;10.10;86.20;;;;;;5014094;28;21009;-77
2020/12/16 10:05:26;;;;;;;24.17;22.70;;;10.10;85.70;;;;;;5013727;28;20452;-77
2020/12/16 10:07:54;;;;;;;24.47;22.80;;;10.10;85.80;;;;;;5013734;28;20556;-77
2020/12/16 10:10:21;;;;;;;23.60;21.93;;;10.20;85.50;;;;;;5013967;28;20864;-77
2020/12/16 10:12:48;;;;;;;22.70;21.30;;;10.30;85.60;;;;;;5013776;28;20452;-77
2020/12/16 10:15:15;;;;;;;22.13;20.70;;;10.20;85.40;;;;;;5013448;28;20456;-77
2020/12/16 10:17:41;;;;;;;23.43;21.83;;;10.30;85.50;;;;;;5013223;28;20567;-77
2020/12/16 10:20:10;;;;;;;23.30;21.90;;;10.30;85.00;;;;;;5013443;28;20978;-77
2020/12/16 10:22:36;;;;;;;22.37;20.87;;;10.40;86.40;;;;;;5013336;28;20458;-77
2020/12/16 10:25:04;;;;;;;22.70;21.10;;;10.40;89.40;;;;;;5013698;28;20556;-77
2020/12/16 10:27:32;;;;;;;24.23;22.67;;;10.50;87.50;;;;;;5013681;28;20530;-78
2020/12/16 10:29:58;;;;;;;23.23;21.73;;;10.50;86.20;;;;;;5013585;28;20455;-78
2020/12/16 10:32:25;;;;;;;24.40;22.60;;;10.70;84.70;;;;;;5013793;28;20543;-78
2020/12/16 10:34:53;;;;;;;24.03;22.33;;;10.70;84.40;;;;;;5014220;28;20460;-78
2020/12/16 10:37:20;;;;;;;23.50;21.80;;;10.80;83.90;;;;;;5013227;28;20473;-78
2020/12/16 10:39:47;;;;;;;24.00;22.50;;;10.90;83.90;;;;;;5014361;28;20491;-78
2020/12/16 10:42:14;;;;;;;23.50;21.90;;;10.80;84.10;;;;;;5013909;28;20468;-78
2020/12/16 10:44:40;;;;;;;23.83;22.23;;;10.80;84.10;;;;;;5013609;28;21004;-78
2020/12/16 10:47:07;;;;;;;25.97;23.97;;;10.80;84.20;;;;;;5013154;28;20477;-78
2020/12/16 10:49:35;;;;;;;23.97;22.20;;;10.90;84.20;;;;;;5013250;28;20445;-78
2020/12/16 10:52:05;;;;;;;24.97;23.27;;;11.00;84.10;;;;;;5013945;28;20927;-78
2020/12/16 10:54:32;;;;;;;24.97;23.27;;;11.00;83.80;;;;;;4994776;28;20460;-78
2020/12/16 10:56:59;;;;;;;26.30;24.20;;;11.00;84.80;;;;;;4994238;28;20536;-78
2020/12/16 10:59:28;;;;;;;26.33;24.10;;;11.10;85.00;;;;;;4999196;28;20485;-78
2020/12/16 11:01:56;;;;;;;26.90;24.60;;;11.20;84.10;;;;;;5013404;28;20492;-78
2020/12/16 11:04:22;;;;;;;26.20;24.50;;;11.20;83.90;;;;;;5013614;28;20453;-78
2020/12/16 11:06:49;;;;;;;27.40;25.43;;;11.30;83.60;;;;;;5013537;28;20480;-78
2020/12/16 11:09:17;;;;;;;27.03;25.03;;;11.40;83.80;;;;;;5013460;28;20453;-78
2020/12/16 11:11:44;;;;;;;25.90;24.10;;;11.40;84.00;;;;;;5013501;28;20551;-78
2020/12/16 11:14:10;;;;;;;26.23;24.43;;;11.50;85.30;;;;;;5013726;28;20452;-78
2020/12/16 11:16:37;;;;;;;26.83;25.00;;;11.50;83.60;;;;;;5013712;28;20469;-78
2020/12/16 11:19:08;;;;;;;26.27;24.53;;;11.60;83.60;;;;;;5013178;28;20573;-78
2020/12/16 11:21:38;;;;;;;27.27;25.37;;;11.60;83.40;;;;;;5013559;28;20457;-78
2020/12/16 11:24:04;;;;;;;26.30;24.37;;;11.70;82.90;;;;;;5013410;28;20997;-78
2020/12/16 11:26:31;;;;;;;26.20;24.30;;;11.70;82.90;;;;;;5013370;28;20480;-78
2020/12/16 11:28:57;;;;;;;25.40;23.60;;;11.80;83.30;;;;;;5013207;28;20453;-78
2020/12/16 11:31:23;;;;;;;26.40;24.70;;;11.80;82.80;;;;;;4993392;28;20498;-78
2020/12/16 11:33:50;;;;;;;27.57;25.77;;;12.00;81.70;;;;;;4993426;28;20964;-78
2020/12/16 11:36:17;;;;;;;27.30;25.27;;;12.00;81.70;;;;;;4993426;28;20485;-78
2020/12/16 11:38:43;;;;;;;26.07;24.20;;;12.10;81.60;;;;;;4993392;28;20572;-78
2020/12/16 11:41:10;;;;;;;27.33;25.53;;;12.10;81.00;;;;;;5011378;28;20973;-78
2020/12/16 11:43:36;;;;;;;27.47;25.17;;;12.20;80.80;;;;;;5013009;28;20456;-78
2020/12/16 11:46:02;;;;;;;26.73;24.90;;;12.20;80.80;;;;;;5012567;28;20453;-79
2020/12/16 11:48:29;;;;;;;25.47;23.63;;;12.20;80.90;;;;;;5013126;28;20518;-78
2020/12/16 11:50:55;;;;;;;26.27;24.37;;;12.30;80.90;;;;;;5012654;28;20468;-78
2020/12/16 11:53:22;;;;;;;26.13;24.23;;;12.30;80.80;;;;;;5012955;28;20544;-78
2020/12/16 11:55:49;;;;;;;26.87;25.10;;;12.20;80.70;;;;;;5012751;28;20459;-79
2020/12/16 11:58:15;;;;;;;26.43;24.47;;;12.30;80.80;;;;;;5013011;28;20471;-78
2020/12/16 12:00:42;;;;;;;27.53;25.40;;;12.40;80.50;;;;;;5012224;28;20476;-78
2020/12/16 12:03:08;;;;;;;28.17;26.10;;;12.50;80.80;;;;;;5012697;28;20449;-78
2020/12/16 12:05:34;;;;;;;29.00;26.80;;;12.50;80.70;;;;;;5012404;28;20471;-79
2020/12/16 12:08:01;;;;;;;27.20;25.50;;;12.50;81.60;;;;;;5012442;28;20555;-78
2020/12/16 12:10:28;;;;;;;28.03;26.20;;;12.60;80.80;;;;;;5012691;28;20506;-78
2020/12/16 12:12:54;;;;;;;28.70;26.90;;;12.70;79.80;;;;;;5020345;28;20510;-78
2020/12/16 12:15:20;;;;;;;30.00;28.03;;;12.70;79.80;;;;;;5022052;28;20491;-79
2020/12/16 12:17:47;;;;;;;28.50;26.60;;;12.80;79.30;;;;;;5015745;28;20479;-78
2020/12/16 12:20:13;;;;;;;27.33;25.47;;;12.70;79.30;;;;;;5016120;28;20571;-78
2020/12/16 12:22:40;;;;;;;27.60;25.90;;;12.80;79.20;;;;;;5019830;28;20481;-78
2020/12/16 12:25:07;;;;;;;28.80;26.90;;;12.80;79.30;;;;;;5019935;28;20514;-78
2020/12/16 12:27:34;;;;;;;29.60;27.67;;;12.90;78.70;;;;;;5017700;28;20511;-79
2020/12/16 12:30:00;;;;;;;28.00;26.20;;;12.90;78.90;;;;;;5015865;28;20514;-78
2020/12/16 12:32:27;;;;;;;28.50;26.47;;;12.90;79.10;;;;;;5015876;28;20469;-78
2020/12/16 12:34:53;;;;;;;28.93;26.97;;;12.80;79.40;;;;;;5016064;28;20475;-78
2020/12/16 12:37:20;;;;;;;29.03;26.97;;;12.80;79.50;;;;;;5015246;28;20507;-79